Time;durP1;ratioP1;P1;durP2;ratioP2;P2;SDS_P1;SDS_P2;PMS_P1;PMS_P2;Temp;Humidity;BMP_temperature;BMP_pressure;BME280_temperature;BME280_humidity;BME280_pressure;Samples;Min_cycle;Max_cycle;Signal;HPM_P1;HPM_P2
2022/12/28 00:01:36;;;;;;;2.35;0.77;;;;;;;;;;5064970;28;20507;-76
2022/12/28 00:04:06;;;;;;;4.93;1.58;;;;;;;;;;5047330;28;20519;-75
2022/12/28 00:06:37;;;;;;;5.68;1.00;;;;;;;;;;5064919;28;20476;-76
2022/12/28 00:09:11;;;;;;;5.60;1.13;;;;;;;;;;5065148;28;20581;-76
2022/12/28 00:11:42;;;;;;;4.15;0.85;;;;;;;;;;5047568;28;20411;-76
2022/12/28 00:14:12;;;;;;;4.18;1.10;;;;;;;;;;5066810;28;20518;-75
2022/12/28 00:16:44;;;;;;;3.65;0.98;;;;;;;;;;5065949;28;20050;-75
2022/12/28 00:19:16;;;;;;;3.22;0.70;;;;;;;;;;5064961;28;20063;-74
2022/12/28 00:21:47;;;;;;;5.72;1.00;;;;;;;;;;5066293;28;20053;-74
2022/12/28 00:24:21;;;;;;;3.92;0.98;;;;;;;;;;5066232;28;20048;-75
2022/12/28 00:26:52;;;;;;;6.28;1.08;;;;;;;;;;5065271;28;20056;-75
2022/12/28 00:29:23;;;;;;;4.20;0.80;;;;;;;;;;5047986;28;20059;-76
2022/12/28 00:31:55;;;;;;;7.25;1.02;;;;;;;;;;5065818;28;20044;-75
2022/12/28 00:34:25;;;;;;;10.07;1.42;;;;;;;;;;5044206;28;20053;-75
2022/12/28 00:36:55;;;;;;;5.20;1.05;;;;;;;;;;5046062;28;20103;-75
2022/12/28 00:39:41;;;;;;;6.05;1.17;;;;;;;;;;5048419;28;20049;-75
2022/12/28 00:42:15;;;;;;;3.97;1.45;;;;;;;;;;5049167;28;20053;-75
2022/12/28 00:44:46;;;;;;;4.72;1.30;;;;;;;;;;5050729;28;20041;-74
2022/12/28 00:47:16;;;;;;;5.10;1.27;;;;;;;;;;5048437;28;20423;-74
2022/12/28 00:49:47;;;;;;;4.60;1.50;;;;;;;;;;5048182;28;20060;-74
2022/12/28 00:52:18;;;;;;;8.00;1.98;;;;;;;;;;5047796;28;20407;-75
2022/12/28 00:54:47;;;;;;;8.18;2.05;;;;;;;;;;5050344;28;20048;-74
2022/12/28 00:57:18;;;;;;;5.05;1.30;;;;;;;;;;5050178;28;20515;-74
2022/12/28 00:59:48;;;;;;;6.47;1.90;;;;;;;;;;5050215;28;20055;-74
2022/12/28 01:02:18;;;;;;;13.95;1.70;;;;;;;;;;5031645;28;20053;-74
2022/12/28 01:04:50;;;;;;;8.73;2.75;;;;;;;;;;5028701;28;20068;-74
2022/12/28 01:07:20;;;;;;;4.90;1.48;;;;;;;;;;5030212;28;20058;-74
2022/12/28 01:09:51;;;;;;;7.85;1.27;;;;;;;;;;5029684;28;20045;-74
2022/12/28 01:12:21;;;;;;;8.63;1.60;;;;;;;;;;5029499;28;20054;-74
2022/12/28 01:14:52;;;;;;;6.10;1.73;;;;;;;;;;5029429;28;20049;-74
2022/12/28 01:17:25;;;;;;;4.50;1.60;;;;;;;;;;5029870;28;20061;-75
2022/12/28 01:19:55;;;;;;;5.55;1.58;;;;;;;;;;5044972;28;20053;-74
2022/12/28 01:22:26;;;;;;;2.30;1.27;;;;;;;;;;5028252;28;20058;-74
2022/12/28 01:24:58;;;;;;;2.88;0.95;;;;;;;;;;5029613;28;20046;-75
2022/12/28 01:27:30;;;;;;;5.38;1.58;;;;;;;;;;5029516;28;20049;-74
2022/12/28 01:30:01;;;;;;;2.35;1.30;;;;;;;;;;5028516;28;20053;-75
2022/12/28 01:32:31;;;;;;;3.55;1.35;;;;;;;;;;5030724;28;20484;-74
2022/12/28 01:35:03;;;;;;;5.93;1.55;;;;;;;;;;5047386;28;20538;-74
2022/12/28 01:37:34;;;;;;;6.93;1.52;;;;;;;;;;5030560;28;20504;-75
2022/12/28 01:40:05;;;;;;;5.32;1.58;;;;;;;;;;5048793;28;20056;-74
2022/12/28 01:42:38;;;;;;;5.65;1.25;;;;;;;;;;5049387;28;20053;-74
2022/12/28 01:45:21;;;;;;;3.78;1.30;;;;;;;;;;5049396;28;20049;-74
2022/12/28 01:47:55;;;;;;;4.13;1.55;;;;;;;;;;5048368;28;20045;-75
2022/12/28 01:50:28;;;;;;;5.05;1.55;;;;;;;;;;5045797;28;20037;-75
2022/12/28 01:53:03;;;;;;;6.07;1.52;;;;;;;;;;5047338;28;20048;-75
2022/12/28 01:55:36;;;;;;;2.83;1.30;;;;;;;;;;5047191;28;20066;-75
2022/12/28 01:58:22;;;;;;;4.20;1.45;;;;;;;;;;5029208;28;20061;-74
2022/12/28 02:00:53;;;;;;;6.32;1.67;;;;;;;;;;5043927;28;20663;-74
2022/12/28 02:03:27;;;;;;;5.65;1.38;;;;;;;;;;5028969;28;20064;-74
2022/12/28 02:06:02;;;;;;;4.03;1.40;;;;;;;;;;5048590;28;20052;-74
2022/12/28 02:08:55;;;;;;;7.40;1.30;;;;;;;;;;5030928;28;20057;-74
2022/12/28 02:11:26;;;;;;;8.75;1.33;;;;;;;;;;5029587;28;20432;-75
2022/12/28 02:13:56;;;;;;;4.60;1.20;;;;;;;;;;5030290;28;20053;-75
2022/12/28 02:16:27;;;;;;;5.50;1.38;;;;;;;;;;5049275;28;20041;-75
2022/12/28 02:18:58;;;;;;;3.28;1.05;;;;;;;;;;5048767;28;20056;-74
2022/12/28 02:21:41;;;;;;;3.25;1.48;;;;;;;;;;5045619;28;20053;-76
2022/12/28 02:24:41;;;;;;;5.40;1.55;;;;;;;;;;5048360;28;20067;-75
2022/12/28 02:27:33;;;;;;;4.28;0.98;;;;;;;;;;5030597;28;20053;-75
2022/12/28 02:30:07;;;;;;;4.88;1.00;;;;;;;;;;5048301;28;20060;-75
2022/12/28 02:33:00;;;;;;;3.40;1.13;;;;;;;;;;5048339;28;20381;-75
2022/12/28 02:35:36;;;;;;;3.97;1.10;;;;;;;;;;5048455;28;20049;-74
2022/12/28 02:38:38;;;;;;;4.03;1.00;;;;;;;;;;5048318;28;20049;-75
2022/12/28 02:41:15;;;;;;;10.15;1.35;;;;;;;;;;5048468;28;20130;-74
2022/12/28 02:43:45;;;;;;;1.52;0.90;;;;;;;;;;5030087;28;20429;-74
2022/12/28 02:52:33;;;;;;;2.95;0.95;;;;;;;;;;5047663;28;20052;-74
2022/12/28 02:58:30;;;;;;;2.58;1.13;;;;;;;;;;5030048;28;20065;-75
2022/12/28 03:01:28;;;;;;;2.00;1.02;;;;;;;;;;5046419;28;20059;-75
2022/12/28 03:04:04;;;;;;;3.08;1.10;;;;;;;;;;5047217;28;20045;-75
2022/12/28 03:09:58;;;;;;;5.47;1.27;;;;;;;;;;5028478;28;20052;-75
2022/12/28 03:12:36;;;;;;;2.90;1.30;;;;;;;;;;5045447;28;20056;-75
2022/12/28 03:15:28;;;;;;;1.75;1.05;;;;;;;;;;5029456;28;20057;-75
2022/12/28 03:33:06;;;;;;;1.83;1.20;;;;;;;;;;5028359;28;20522;-75
2022/12/28 03:35:53;;;;;;;6.25;1.40;;;;;;;;;;5045327;28;20400;-75
2022/12/28 03:38:57;;;;;;;3.40;1.25;;;;;;;;;;5028942;28;20057;-75
2022/12/28 03:41:35;;;;;;;3.58;1.20;;;;;;;;;;5038884;28;20053;-74
2022/12/28 03:44:31;;;;;;;7.45;1.42;;;;;;;;;;5028944;28;20056;-75
2022/12/28 03:47:10;;;;;;;5.22;1.13;;;;;;;;;;5028461;28;20515;-74
2022/12/28 03:49:41;;;;;;;2.50;1.15;;;;;;;;;;5046131;28;20519;-75
2022/12/28 03:52:12;;;;;;;6.28;1.50;;;;;;;;;;5028595;28;20068;-75
2022/12/28 03:54:42;;;;;;;6.60;1.55;;;;;;;;;;5029142;28;20068;-75
2022/12/28 03:57:17;;;;;;;5.28;1.38;;;;;;;;;;5045782;28;20507;-75
2022/12/28 03:59:49;;;;;;;4.50;1.65;;;;;;;;;;5028768;28;20484;-76
2022/12/28 04:02:19;;;;;;;6.95;1.40;;;;;;;;;;5046342;28;20416;-75
2022/12/28 04:04:50;;;;;;;3.05;1.30;;;;;;;;;;5047050;28;20045;-76
2022/12/28 04:07:20;;;;;;;2.53;1.40;;;;;;;;;;5045020;28;20060;-76
2022/12/28 04:09:51;;;;;;;3.78;1.42;;;;;;;;;;5044909;28;20060;-75
2022/12/28 04:12:22;;;;;;;5.65;1.40;;;;;;;;;;5047031;28;20045;-75
2022/12/28 04:25:38;;;;;;;3.75;1.15;;;;;;;;;;5124618;27;21029;-75
2022/12/28 04:28:10;;;;;;;4.55;1.20;;;;;;;;;;5123386;28;20842;-76
2022/12/28 04:30:58;;;;;;;;;;;;;;;;;;5126158;27;20824;-75
2022/12/28 04:33:32;;;;;;;3.17;1.40;;;;;;;;;;5123056;28;19938;-76
2022/12/28 04:36:13;;;;;;;3.67;0.98;;;;;;;;;;5125678;28;20058;-77
2022/12/28 04:38:46;;;;;;;2.65;1.15;;;;;;;;;;5123730;28;20051;-76
2022/12/28 04:41:17;;;;;;;2.33;1.17;;;;;;;;;;5128079;28;20043;-76
2022/12/28 04:43:46;;;;;;;3.40;1.08;;;;;;;;;;5124906;28;20054;-77
2022/12/28 04:46:19;;;;;;;2.63;1.40;;;;;;;;;;5124476;28;20160;-76
2022/12/28 04:48:50;;;;;;;2.05;0.98;;;;;;;;;;5124864;27;20489;-77
2022/12/28 04:51:22;;;;;;;2.70;1.00;;;;;;;;;;5125036;28;20058;-74
2022/12/28 04:53:54;;;;;;;6.38;1.33;;;;;;;;;;5125255;28;20048;-76
2022/12/28 04:56:26;;;;;;;3.22;1.17;;;;;;;;;;5125048;28;20485;-76
2022/12/28 04:58:58;;;;;;;3.00;1.17;;;;;;;;;;5126028;28;20070;-74
2022/12/28 05:01:29;;;;;;;2.92;1.20;;;;;;;;;;5125348;28;20043;-73
2022/12/28 05:04:00;;;;;;;2.28;1.17;;;;;;;;;;5123455;28;20055;-74
2022/12/28 05:06:30;;;;;;;2.40;1.25;;;;;;;;;;5124404;28;20051;-74
2022/12/28 05:09:01;;;;;;;2.15;1.23;;;;;;;;;;5122973;28;20050;-75
2022/12/28 05:11:31;;;;;;;1.83;1.30;;;;;;;;;;5124533;28;20054;-76
2022/12/28 05:14:02;;;;;;;1.60;1.17;;;;;;;;;;5123943;28;20055;-75
2022/12/28 05:16:34;;;;;;;1.20;1.00;;;;;;;;;;5124089;28;20043;-73
2022/12/28 05:19:04;;;;;;;2.42;1.20;;;;;;;;;;5104886;28;20381;-74
2022/12/28 05:21:35;;;;;;;7.13;1.20;;;;;;;;;;5122344;28;20043;-75
2022/12/28 05:24:05;;;;;;;2.13;1.08;;;;;;;;;;5123598;28;20401;-75
2022/12/28 05:26:36;;;;;;;1.20;1.02;;;;;;;;;;5109828;28;20048;-73
2022/12/28 05:29:07;;;;;;;3.35;1.00;;;;;;;;;;5110076;28;20054;-73
2022/12/28 05:31:38;;;;;;;2.33;1.25;;;;;;;;;;5110606;28;20549;-73
2022/12/28 05:34:08;;;;;;;2.88;1.02;;;;;;;;;;5109614;28;20067;-74
2022/12/28 05:36:38;;;;;;;1.70;1.00;;;;;;;;;;5110287;28;20055;-75
2022/12/28 05:39:10;;;;;;;0.98;0.90;;;;;;;;;;5109372;28;20043;-75
2022/12/28 05:41:41;;;;;;;3.30;1.30;;;;;;;;;;5108683;28;20402;-75
2022/12/28 05:44:12;;;;;;;4.88;1.35;;;;;;;;;;5109398;28;20418;-74
2022/12/28 05:46:42;;;;;;;2.13;1.23;;;;;;;;;;5110129;28;20047;-76
2022/12/28 05:49:13;;;;;;;3.65;1.10;;;;;;;;;;5109751;28;20047;-73
2022/12/28 05:51:44;;;;;;;3.35;0.80;;;;;;;;;;5109172;28;20044;-75
2022/12/28 05:54:13;;;;;;;1.73;1.02;;;;;;;;;;5108831;28;20525;-75
2022/12/28 05:56:44;;;;;;;1.27;0.80;;;;;;;;;;5108892;28;20055;-76
2022/12/28 05:59:14;;;;;;;1.48;0.98;;;;;;;;;;5109132;28;20039;-76
2022/12/28 06:01:45;;;;;;;1.50;0.90;;;;;;;;;;5108026;28;20055;-74
2022/12/28 06:04:19;;;;;;;3.53;0.80;;;;;;;;;;5109475;28;20044;-75
2022/12/28 06:06:50;;;;;;;1.40;0.82;;;;;;;;;;5108951;28;20047;-75
2022/12/28 06:09:20;;;;;;;1.50;0.85;;;;;;;;;;5108901;28;20117;-75
2022/12/28 06:11:51;;;;;;;2.00;0.80;;;;;;;;;;5109657;28;20409;-76
2022/12/28 06:14:22;;;;;;;2.00;1.00;;;;;;;;;;5109430;28;20039;-75
2022/12/28 06:16:53;;;;;;;1.08;0.80;;;;;;;;;;5108647;28;20044;-75
2022/12/28 06:19:23;;;;;;;1.77;0.85;;;;;;;;;;5108478;28;20047;-74
2022/12/28 06:21:54;;;;;;;4.63;0.85;;;;;;;;;;5108828;28;20055;-75
2022/12/28 06:24:25;;;;;;;2.58;0.65;;;;;;;;;;5108685;28;20051;-76
2022/12/28 06:26:55;;;;;;;2.97;0.80;;;;;;;;;;5108611;28;20413;-74
2022/12/28 06:29:25;;;;;;;2.50;0.80;;;;;;;;;;5108752;28;20058;-74
2022/12/28 06:31:59;;;;;;;1.58;0.77;;;;;;;;;;5108534;28;20047;-75
2022/12/28 06:34:29;;;;;;;0.95;0.60;;;;;;;;;;5106696;28;20044;-74
2022/12/28 06:37:00;;;;;;;3.40;0.77;;;;;;;;;;5107361;28;20047;-74
2022/12/28 06:39:30;;;;;;;0.90;0.75;;;;;;;;;;5108252;28;20074;-75
2022/12/28 06:42:00;;;;;;;1.33;0.90;;;;;;;;;;5107880;28;20119;-75
2022/12/28 06:44:30;;;;;;;2.67;0.93;;;;;;;;;;5106939;28;20044;-75
2022/12/28 06:47:00;;;;;;;0.80;0.63;;;;;;;;;;5108704;28;20371;-75
2022/12/28 06:49:31;;;;;;;1.38;0.77;;;;;;;;;;5108206;28;20055;-75
2022/12/28 06:52:01;;;;;;;2.40;0.75;;;;;;;;;;5108350;28;20516;-74
2022/12/28 06:54:31;;;;;;;1.17;0.75;;;;;;;;;;5107961;28;20497;-74
2022/12/28 06:57:02;;;;;;;1.88;0.68;;;;;;;;;;5106173;28;20064;-75
2022/12/28 06:59:32;;;;;;;2.42;0.80;;;;;;;;;;5107867;28;20054;-75
2022/12/28 07:02:02;;;;;;;2.63;0.75;;;;;;;;;;5108001;28;20153;-75
2022/12/28 07:04:32;;;;;;;1.58;0.82;;;;;;;;;;5107966;28;20521;-75
2022/12/28 07:07:02;;;;;;;1.10;0.82;;;;;;;;;;5107754;28;20051;-74
2022/12/28 07:09:32;;;;;;;0.88;0.88;;;;;;;;;;5107971;28;20040;-74
2022/12/28 07:12:03;;;;;;;1.13;1.02;;;;;;;;;;5107657;28;20043;-74
2022/12/28 07:14:33;;;;;;;2.72;0.82;;;;;;;;;;5108274;28;20052;-74
2022/12/28 07:17:03;;;;;;;2.13;0.95;;;;;;;;;;5107544;28;20082;-75
2022/12/28 07:19:33;;;;;;;2.47;0.95;;;;;;;;;;5106750;28;20048;-75
2022/12/28 07:22:04;;;;;;;2.35;0.85;;;;;;;;;;5105986;28;20052;-75
2022/12/28 07:24:36;;;;;;;1.00;0.90;;;;;;;;;;5107588;28;20047;-74
2022/12/28 07:27:06;;;;;;;8.10;1.00;;;;;;;;;;5107609;28;20050;-74
2022/12/28 07:29:36;;;;;;;3.75;0.90;;;;;;;;;;5107592;28;20048;-76
2022/12/28 07:32:06;;;;;;;1.67;0.80;;;;;;;;;;5107531;28;20117;-75
2022/12/28 07:34:37;;;;;;;1.15;1.00;;;;;;;;;;5107382;28;20163;-76
2022/12/28 07:37:07;;;;;;;3.05;1.10;;;;;;;;;;5107458;28;20490;-76
2022/12/28 07:39:37;;;;;;;3.65;1.05;;;;;;;;;;5107447;28;20409;-76
2022/12/28 07:42:09;;;;;;;2.15;1.20;;;;;;;;;;5106319;28;20055;-74
2022/12/28 07:44:44;;;;;;;2.63;1.05;;;;;;;;;;5106542;28;20059;-74
2022/12/28 07:47:18;;;;;;;1.20;0.80;;;;;;;;;;5107335;28;20409;-76
2022/12/28 07:49:48;;;;;;;0.80;0.80;;;;;;;;;;5107429;28;20708;-76
2022/12/28 07:52:19;;;;;;;1.17;0.90;;;;;;;;;;5107243;28;20048;-75
2022/12/28 07:54:50;;;;;;;1.40;0.90;;;;;;;;;;5107749;28;20060;-74
2022/12/28 07:57:20;;;;;;;1.17;0.82;;;;;;;;;;5107097;28;20051;-74
2022/12/28 07:59:50;;;;;;;0.90;0.80;;;;;;;;;;5106748;28;20421;-75
2022/12/28 08:02:20;;;;;;;2.92;1.20;;;;;;;;;;5107653;28;20536;-73
2022/12/28 08:04:51;;;;;;;3.53;1.23;;;;;;;;;;5107206;28;20028;-76
2022/12/28 08:07:21;;;;;;;2.63;1.10;;;;;;;;;;5106518;28;20044;-74
2022/12/28 08:09:51;;;;;;;0.90;0.90;;;;;;;;;;5105606;28;20044;-75
2022/12/28 08:12:21;;;;;;;2.97;0.90;;;;;;;;;;5106676;28;20420;-75
2022/12/28 08:14:52;;;;;;;1.15;0.73;;;;;;;;;;5106385;28;20058;-74
2022/12/28 08:17:22;;;;;;;1.85;1.05;;;;;;;;;;5106766;28;20051;-76
2022/12/28 08:19:54;;;;;;;2.97;1.00;;;;;;;;;;5107359;28;20050;-75
2022/12/28 08:22:25;;;;;;;0.88;0.80;;;;;;;;;;5106081;28;20071;-76
2022/12/28 08:24:55;;;;;;;3.22;0.90;;;;;;;;;;5106710;28;20058;-76
2022/12/28 08:27:25;;;;;;;0.90;0.88;;;;;;;;;;5105724;28;20121;-74
2022/12/28 08:29:58;;;;;;;0.85;0.80;;;;;;;;;;5107272;28;20516;-74
2022/12/28 08:32:28;;;;;;;0.85;0.80;;;;;;;;;;5106653;28;20482;-75
2022/12/28 08:34:59;;;;;;;4.07;0.80;;;;;;;;;;5106953;28;20544;-76
2022/12/28 08:37:29;;;;;;;2.25;0.98;;;;;;;;;;5106738;28;20048;-75
2022/12/28 08:39:59;;;;;;;1.42;1.02;;;;;;;;;;5105438;28;20094;-74
2022/12/28 08:42:29;;;;;;;3.03;1.25;;;;;;;;;;5106422;28;20406;-74
2022/12/28 08:45:01;;;;;;;6.47;1.20;;;;;;;;;;5107077;28;20052;-75
2022/12/28 08:47:31;;;;;;;1.30;1.00;;;;;;;;;;5106622;28;20078;-75
2022/12/28 08:50:00;;;;;;;2.17;1.08;;;;;;;;;;5107241;28;20498;-74
2022/12/28 08:52:31;;;;;;;4.55;1.10;;;;;;;;;;5106715;28;20047;-76
2022/12/28 08:55:01;;;;;;;3.75;1.33;;;;;;;;;;5106314;28;20039;-75
2022/12/28 08:57:34;;;;;;;2.63;1.00;;;;;;;;;;5106255;28;20122;-76
2022/12/28 09:00:06;;;;;;;3.20;1.30;;;;;;;;;;5107499;28;20398;-76
2022/12/28 09:02:36;;;;;;;1.52;1.17;;;;;;;;;;5110588;28;20047;-76
2022/12/28 09:05:07;;;;;;;5.65;1.38;;;;;;;;;;5110513;28;20428;-74
2022/12/28 09:07:37;;;;;;;3.20;1.23;;;;;;;;;;5110109;28;20043;-75
2022/12/28 09:10:08;;;;;;;2.78;1.50;;;;;;;;;;5110384;28;20054;-75
2022/12/28 09:12:39;;;;;;;3.13;1.15;;;;;;;;;;5110117;28;20532;-75
2022/12/28 09:15:09;;;;;;;5.65;1.13;;;;;;;;;;5109886;28;20040;-73
2022/12/28 09:17:40;;;;;;;2.10;1.33;;;;;;;;;;5109913;28;20434;-75
2022/12/28 09:20:11;;;;;;;2.28;1.55;;;;;;;;;;5110553;28;20401;-76
2022/12/28 09:22:42;;;;;;;4.28;1.60;;;;;;;;;;5109577;28;20051;-75
2022/12/28 09:25:12;;;;;;;2.35;1.40;;;;;;;;;;5109596;28;20060;-74
2022/12/28 09:27:42;;;;;;;3.00;1.58;;;;;;;;;;5109786;28;20039;-75
2022/12/28 09:30:12;;;;;;;3.75;1.95;;;;;;;;;;5110404;28;20062;-74
2022/12/28 09:33:57;;;;;;;3.20;1.85;;;;;;;;;;5109490;28;20524;-75
2022/12/28 09:35:35;;;;;;;4.68;2.67;;;;;;;;;;5110149;28;20043;-75
2022/12/28 09:38:05;;;;;;;3.60;2.35;;;;;;;;;;5110310;28;20051;-76
2022/12/28 09:40:37;;;;;;;5.43;3.55;;;;;;;;;;5109758;28;20067;-77
2022/12/28 09:43:11;;;;;;;9.32;3.05;;;;;;;;;;5109267;28;20039;-75
2022/12/28 09:45:45;;;;;;;5.72;3.22;;;;;;;;;;5109199;28;20039;-74
2022/12/28 09:48:20;;;;;;;8.48;2.95;;;;;;;;;;5109560;28;20071;-74
2022/12/28 09:50:50;;;;;;;6.82;3.40;;;;;;;;;;5106885;28;20048;-74
2022/12/28 09:53:33;;;;;;;7.93;3.25;;;;;;;;;;5109259;28;20516;-74
2022/12/28 09:56:34;;;;;;;7.53;3.25;;;;;;;;;;5109010;28;20058;-74
2022/12/28 09:59:06;;;;;;;6.82;3.58;;;;;;;;;;5109655;28;20482;-75
2022/12/28 10:01:38;;;;;;;4.65;3.35;;;;;;;;;;5108774;28;20051;-77
2022/12/28 10:04:11;;;;;;;9.25;3.80;;;;;;;;;;5109373;28;20054;-75
2022/12/28 10:06:43;;;;;;;5.45;3.60;;;;;;;;;;5108342;28;20516;-75
2022/12/28 10:09:27;;;;;;;8.10;4.18;;;;;;;;;;5109266;28;20051;-75
2022/12/28 10:12:01;;;;;;;6.65;4.30;;;;;;;;;;5108356;28;20047;-76
2022/12/28 10:14:35;;;;;;;7.78;4.63;;;;;;;;;;5107250;28;20382;-75
2022/12/28 10:17:08;;;;;;;5.10;3.92;;;;;;;;;;5108714;28;20054;-75
2022/12/28 10:19:39;;;;;;;7.10;4.13;;;;;;;;;;5108697;28;20059;-75
2022/12/28 10:22:19;;;;;;;7.40;3.92;;;;;;;;;;5108681;28;20051;-78
2022/12/28 10:24:51;;;;;;;4.63;2.85;;;;;;;;;;5109349;28;20081;-77
2022/12/28 10:27:23;;;;;;;6.55;2.95;;;;;;;;;;5107838;28;20063;-76
2022/12/28 10:29:58;;;;;;;6.13;2.53;;;;;;;;;;5109848;28;20040;-75
2022/12/28 10:32:48;;;;;;;1.88;1.23;;;;;;;;;;5106623;28;20051;-73
2022/12/28 10:35:48;;;;;;;1.67;1.00;;;;;;;;;;5109126;28;20051;-78
2022/12/28 10:38:34;;;;;;;1.83;0.70;;;;;;;;;;5103838;28;20070;-75
2022/12/28 10:41:10;;;;;;;1.40;0.70;;;;;;;;;;5109217;28;20044;-76
2022/12/28 10:43:43;;;;;;;2.72;0.63;;;;;;;;;;5109215;28;20501;-75
2022/12/28 10:46:23;;;;;;;0.32;0.32;;;;;;;;;;5108954;28;20043;-75
2022/12/28 10:48:57;;;;;;;0.63;0.30;;;;;;;;;;5108863;28;20043;-74
2022/12/28 10:51:29;;;;;;;0.20;0.20;;;;;;;;;;5108940;28;20048;-80
2022/12/28 10:53:59;;;;;;;1.45;0.15;;;;;;;;;;5108409;28;20058;-77
2022/12/28 10:56:32;;;;;;;0.45;0.10;;;;;;;;;;5107626;28;20051;-75
2022/12/28 10:59:10;;;;;;;2.13;0.22;;;;;;;;;;5108071;28;20048;-77
2022/12/28 11:01:41;;;;;;;0.10;0.10;;;;;;;;;;5107914;28;20059;-79
2022/12/28 11:04:23;;;;;;;0.52;0.03;;;;;;;;;;5108036;28;20047;-77
2022/12/28 11:06:59;;;;;;;0.10;0.10;;;;;;;;;;5090982;28;20055;-76
2022/12/28 11:09:34;;;;;;;0.85;0.30;;;;;;;;;;5107721;28;20050;-76
2022/12/28 11:12:27;;;;;;;1.88;0.30;;;;;;;;;;5108136;28;20048;-76
2022/12/28 11:14:58;;;;;;;0.10;0.10;;;;;;;;;;5108289;28;20043;-75
2022/12/28 11:17:35;;;;;;;0.50;0.22;;;;;;;;;;5108011;28;20059;-76
2022/12/28 11:20:21;;;;;;;0.10;0.10;;;;;;;;;;5107235;28;20046;-74
2022/12/28 11:22:52;;;;;;;1.10;1.00;;;;;;;;;;5107635;28;20051;-78
2022/12/28 11:25:30;;;;;;;0.35;0.22;;;;;;;;;;5107963;28;20738;-76
2022/12/28 11:28:06;;;;;;;0.75;0.50;;;;;;;;;;5107795;28;20043;-75
2022/12/28 11:30:38;;;;;;;0.30;0.20;;;;;;;;;;5107429;28;20498;-76
2022/12/28 11:33:45;;;;;;;0.13;0.13;;;;;;;;;;5107841;28;20070;-75
2022/12/28 11:36:24;;;;;;;0.47;0.35;;;;;;;;;;5007827;28;20050;-75
2022/12/28 11:38:56;;;;;;;0.28;0.28;;;;;;;;;;5100791;27;20082;-75
2022/12/28 11:41:29;;;;;;;0.57;0.25;;;;;;;;;;5107912;28;20464;-75
2022/12/28 11:44:05;;;;;;;0.35;0.20;;;;;;;;;;5107063;28;20056;-74
2022/12/28 11:46:39;;;;;;;1.73;0.65;;;;;;;;;;5107244;28;20054;-75
2022/12/28 11:49:28;;;;;;;0.68;0.50;;;;;;;;;;5107301;28;20826;-75
2022/12/28 11:52:15;;;;;;;0.77;0.43;;;;;;;;;;5107024;28;20036;-75
2022/12/28 11:54:54;;;;;;;1.25;0.35;;;;;;;;;;5106897;28;20047;-77
2022/12/28 11:57:42;;;;;;;0.32;0.20;;;;;;;;;;5107120;28;20058;-75
2022/12/28 12:00:22;;;;;;;0.70;0.50;;;;;;;;;;5107353;28;20047;-75
2022/12/28 12:03:01;;;;;;;1.10;0.40;;;;;;;;;;5107500;28;20054;-76
2022/12/28 12:05:37;;;;;;;0.50;0.50;;;;;;;;;;5107116;28;20040;-75
2022/12/28 12:08:17;;;;;;;2.35;0.80;;;;;;;;;;5107024;28;20044;-75
2022/12/28 12:11:07;;;;;;;1.70;0.90;;;;;;;;;;5106825;28;20062;-75
2022/12/28 12:13:43;;;;;;;1.98;0.90;;;;;;;;;;5106747;28;20043;-74
2022/12/28 12:16:30;;;;;;;1.50;0.73;;;;;;;;;;5106847;28;20106;-74
2022/12/28 12:19:05;;;;;;;1.20;0.52;;;;;;;;;;5106793;28;20058;-75
2022/12/28 12:21:41;;;;;;;1.27;0.50;;;;;;;;;;5106575;28;20059;-76
2022/12/28 12:24:17;;;;;;;1.30;1.10;;;;;;;;;;5105122;28;20064;-75
2022/12/28 12:26:57;;;;;;;2.13;1.08;;;;;;;;;;5107240;28;20055;-74
2022/12/28 12:29:43;;;;;;;1.42;1.15;;;;;;;;;;5106750;28;20032;-73
2022/12/28 12:32:20;;;;;;;1.27;1.00;;;;;;;;;;5106609;28;20055;-74
2022/12/28 12:35:01;;;;;;;0.95;0.73;;;;;;;;;;5106854;28;20040;-74
2022/12/28 12:37:43;;;;;;;0.95;0.77;;;;;;;;;;5110673;28;20047;-74
2022/12/28 12:40:16;;;;;;;0.95;0.75;;;;;;;;;;5111115;28;20058;-75
2022/12/28 12:43:06;;;;;;;5.93;3.33;;;;;;;;;;5110228;28;20051;-73
2022/12/28 12:46:07;;;;;;;3.03;1.10;;;;;;;;;;5109948;28;20489;-74
2022/12/28 12:49:15;;;;;;;2.40;0.80;;;;;;;;;;5110495;28;20047;-74
2022/12/28 12:52:05;;;;;;;1.92;1.13;;;;;;;;;;5111153;28;20040;-75
2022/12/28 12:54:41;;;;;;;2.72;0.50;;;;;;;;;;5110553;28;20055;-77
2022/12/28 12:57:22;;;;;;;0.60;0.50;;;;;;;;;;5110069;28;20052;-75
2022/12/28 13:00:01;;;;;;;2.90;0.75;;;;;;;;;;5110280;28;20043;-75
2022/12/28 13:02:51;;;;;;;1.08;0.60;;;;;;;;;;5108937;28;20077;-75
2022/12/28 13:05:25;;;;;;;1.77;0.68;;;;;;;;;;5110454;28;20631;-74
2022/12/28 13:07:59;;;;;;;1.50;0.40;;;;;;;;;;5109394;28;20043;-75
2022/12/28 13:10:34;;;;;;;10.77;1.20;;;;;;;;;;5109655;28;20048;-74
2022/12/28 13:13:05;;;;;;;1.17;0.50;;;;;;;;;;5110246;28;20035;-75
2022/12/28 13:15:36;;;;;;;0.45;0.40;;;;;;;;;;5110222;28;20035;-75
2022/12/28 13:18:18;;;;;;;1.52;0.60;;;;;;;;;;5109730;28;20497;-75
2022/12/28 13:21:19;;;;;;;1.15;0.55;;;;;;;;;;5109691;28;20048;-75
2022/12/28 13:23:51;;;;;;;0.93;0.50;;;;;;;;;;5109402;28;20051;-75
2022/12/28 13:26:29;;;;;;;0.68;0.35;;;;;;;;;;5109463;28;20047;-76
2022/12/28 13:29:01;;;;;;;4.97;0.60;;;;;;;;;;5110149;28;20507;-74
2022/12/28 13:31:40;;;;;;;2.47;0.60;;;;;;;;;;5109782;28;20050;-75
2022/12/28 13:34:16;;;;;;;1.48;0.70;;;;;;;;;;5111715;27;20047;-74
2022/12/28 13:36:56;;;;;;;1.65;0.55;;;;;;;;;;5109566;28;20039;-74
2022/12/28 13:39:33;;;;;;;0.45;0.25;;;;;;;;;;5110059;28;20043;-73
2022/12/28 13:42:23;;;;;;;1.40;0.40;;;;;;;;;;5109637;28;20051;-74
2022/12/28 13:44:58;;;;;;;0.25;0.20;;;;;;;;;;5109528;28;20408;-74
2022/12/28 13:47:34;;;;;;;0.40;0.30;;;;;;;;;;5108590;28;20050;-74
2022/12/28 13:50:25;;;;;;;3.03;0.50;;;;;;;;;;5109310;28;20398;-78
2022/12/28 13:53:01;;;;;;;3.45;1.20;;;;;;;;;;5109243;28;20047;-74
2022/12/28 13:55:39;;;;;;;0.82;0.40;;;;;;;;;;5108827;28;20494;-73
2022/12/28 13:58:16;;;;;;;0.65;0.40;;;;;;;;;;5109557;28;20048;-74
2022/12/28 14:00:49;;;;;;;1.30;0.52;;;;;;;;;;5109012;28;20052;-74
2022/12/28 14:03:20;;;;;;;0.80;0.40;;;;;;;;;;5109542;28;20044;-76
2022/12/28 14:05:58;;;;;;;1.38;0.60;;;;;;;;;;5107696;28;20057;-76
2022/12/28 14:08:32;;;;;;;0.43;0.38;;;;;;;;;;5109161;28;20055;-75
2022/12/28 14:11:04;;;;;;;1.92;0.70;;;;;;;;;;5109674;28;20051;-75
2022/12/28 14:13:36;;;;;;;0.68;0.30;;;;;;;;;;5108830;28;20501;-75
2022/12/28 14:16:07;;;;;;;2.25;0.40;;;;;;;;;;5109034;28;20410;-76
2022/12/28 14:18:38;;;;;;;0.85;0.50;;;;;;;;;;5108860;28;20051;-76
2022/12/28 14:21:09;;;;;;;1.60;0.60;;;;;;;;;;5109081;28;20047;-75
2022/12/28 14:23:39;;;;;;;1.02;0.60;;;;;;;;;;5108862;28;20051;-75
2022/12/28 14:26:19;;;;;;;0.52;0.40;;;;;;;;;;5109183;28;20043;-77
2022/12/28 14:28:54;;;;;;;1.80;0.50;;;;;;;;;;5108933;28;20421;-75
2022/12/28 14:31:27;;;;;;;1.95;0.60;;;;;;;;;;5108398;28;20052;-75
2022/12/28 14:34:01;;;;;;;0.80;0.50;;;;;;;;;;5109087;28;20047;-75
2022/12/28 14:36:47;;;;;;;2.67;0.68;;;;;;;;;;5108914;28;20058;-75
2022/12/28 14:39:45;;;;;;;1.00;0.60;;;;;;;;;;5108452;28;20051;-76
2022/12/28 14:42:21;;;;;;;1.45;0.57;;;;;;;;;;5108442;28;20047;-75
2022/12/28 14:44:52;;;;;;;1.60;0.73;;;;;;;;;;5106610;28;20047;-74
2022/12/28 14:47:46;;;;;;;1.15;0.45;;;;;;;;;;5108038;28;20054;-75
2022/12/28 14:50:27;;;;;;;0.47;0.47;;;;;;;;;;5108449;28;20066;-75
2022/12/28 14:53:13;;;;;;;1.45;0.60;;;;;;;;;;5108715;28;20044;-75
2022/12/28 14:56:11;;;;;;;0.80;0.60;;;;;;;;;;5108352;28;20531;-74
2022/12/28 14:58:47;;;;;;;1.75;0.80;;;;;;;;;;5107760;28;20502;-75
2022/12/28 15:01:20;;;;;;;3.75;0.70;;;;;;;;;;5108411;28;20047;-76
2022/12/28 15:04:00;;;;;;;1.33;0.70;;;;;;;;;;5107917;28;20036;-76
2022/12/28 15:06:32;;;;;;;1.77;0.70;;;;;;;;;;5107867;28;20048;-74
2022/12/28 15:09:05;;;;;;;1.23;0.50;;;;;;;;;;5108179;28;20047;-76
2022/12/28 15:11:35;;;;;;;1.52;0.77;;;;;;;;;;5107712;28;20039;-75
2022/12/28 15:14:05;;;;;;;1.17;0.50;;;;;;;;;;5107974;28;20043;-78
2022/12/28 15:16:38;;;;;;;1.83;0.80;;;;;;;;;;5107797;28;20051;-76
2022/12/28 15:19:08;;;;;;;1.60;0.80;;;;;;;;;;5108091;28;20047;-76
2022/12/28 15:21:39;;;;;;;1.85;0.60;;;;;;;;;;5107954;28;20051;-75
2022/12/28 15:24:11;;;;;;;1.13;0.60;;;;;;;;;;5107373;28;20490;-75
2022/12/28 15:26:44;;;;;;;1.05;0.47;;;;;;;;;;5108128;28;20044;-75
2022/12/28 15:29:14;;;;;;;0.38;0.35;;;;;;;;;;5106168;28;20044;-74
2022/12/28 15:32:05;;;;;;;1.05;0.70;;;;;;;;;;5107817;28;20052;-75
2022/12/28 15:34:37;;;;;;;0.45;0.40;;;;;;;;;;5107631;28;20784;-74
2022/12/28 15:37:07;;;;;;;4.35;0.65;;;;;;;;;;5107543;28;20051;-75
2022/12/28 15:39:37;;;;;;;1.27;0.50;;;;;;;;;;5106284;28;20055;-75
2022/12/28 15:42:07;;;;;;;2.80;1.60;;;;;;;;;;5107218;28;20441;-75
2022/12/28 15:44:38;;;;;;;2.22;0.68;;;;;;;;;;5107473;28;20036;-77
2022/12/28 15:47:09;;;;;;;1.67;0.70;;;;;;;;;;5107223;28;20040;-75
2022/12/28 15:49:44;;;;;;;0.95;0.52;;;;;;;;;;5107093;28;20066;-76
2022/12/28 15:52:16;;;;;;;1.38;0.55;;;;;;;;;;5105561;28;20044;-80
2022/12/28 15:54:46;;;;;;;1.75;0.65;;;;;;;;;;5106933;28;20047;-75
2022/12/28 15:57:16;;;;;;;0.68;0.68;;;;;;;;;;5106878;28;20485;-75
2022/12/28 15:59:46;;;;;;;2.08;1.38;;;;;;;;;;5106836;28;20059;-75
2022/12/28 16:02:16;;;;;;;2.95;0.95;;;;;;;;;;5106904;28;20040;-76
2022/12/28 16:04:48;;;;;;;2.00;0.80;;;;;;;;;;5107095;28;20047;-75
2022/12/28 16:07:18;;;;;;;1.98;0.75;;;;;;;;;;5107361;28;20050;-73